sensor_id;sensor_type;location;lat;lon;timestamp;pressure;altitude;pressure_sealevel;temperature;humidity
13124;BME280;6627;50.920;12.050;2022-12-07T00:01:05;98466.09;;;6.86;69.99
13124;BME280;6627;50.920;12.050;2022-12-07T00:03:33;98469.03;;;6.60;71.42
13124;BME280;6627;50.920;12.050;2022-12-07T00:06:05;98433.47;;;5.79;73.14
13124;BME280;6627;50.920;12.050;2022-12-07T00:08:35;98501.88;;;6.57;72.80
13124;BME280;6627;50.920;12.050;2022-12-07T00:11:03;98526.16;;;7.15;71.73
13124;BME280;6627;50.920;12.050;2022-12-07T00:13:33;98488.88;;;7.27;70.09
13124;BME280;6627;50.920;12.050;2022-12-07T00:16:02;98441.97;;;6.75;69.64
13124;BME280;6627;50.920;12.050;2022-12-07T00:18:30;98433.75;;;6.27;71.44
13124;BME280;6627;50.920;12.050;2022-12-07T00:21:01;98442.28;;;6.40;71.22
13124;BME280;6627;50.920;12.050;2022-12-07T00:23:29;98414.97;;;6.22;70.11
13124;BME280;6627;50.920;12.050;2022-12-07T00:26:06;98434.13;;;6.50;70.12
13124;BME280;6627;50.920;12.050;2022-12-07T00:28:34;98428.69;;;6.55;69.46
13124;BME280;6627;50.920;12.050;2022-12-07T00:31:04;98435.66;;;6.61;68.78
13124;BME280;6627;50.920;12.050;2022-12-07T00:33:33;98391.31;;;6.24;68.81
13124;BME280;6627;50.920;12.050;2022-12-07T00:36:02;98379.91;;;6.03;69.63
13124;BME280;6627;50.920;12.050;2022-12-07T00:38:33;98342.97;;;5.25;71.63
13124;BME280;6627;50.920;12.050;2022-12-07T00:41:04;98326.75;;;4.86;72.37
13124;BME280;6627;50.920;12.050;2022-12-07T00:43:32;98347.69;;;4.84;73.20
13124;BME280;6627;50.920;12.050;2022-12-07T00:46:00;98349.59;;;4.78;73.57
13124;BME280;6627;50.920;12.050;2022-12-07T00:48:28;98378.44;;;5.17;74.11
13124;BME280;6627;50.920;12.050;2022-12-07T00:50:55;98330.31;;;4.66;74.27
13124;BME280;6627;50.920;12.050;2022-12-07T00:53:24;98337.53;;;4.71;74.68
13124;BME280;6627;50.920;12.050;2022-12-07T00:55:51;98371.78;;;5.10;74.50
13124;BME280;6627;50.920;12.050;2022-12-07T00:58:21;98401.91;;;5.56;73.56
13124;BME280;6627;50.920;12.050;2022-12-07T01:00:49;98321.97;;;4.68;74.31
13124;BME280;6627;50.920;12.050;2022-12-07T01:03:17;98284.25;;;4.44;74.92
13124;BME280;6627;50.920;12.050;2022-12-07T01:05:52;98291.50;;;4.43;75.33
13124;BME280;6627;50.920;12.050;2022-12-07T01:08:22;98345.50;;;5.01;75.70
13124;BME280;6627;50.920;12.050;2022-12-07T01:10:58;98273.00;;;4.37;75.55
13124;BME280;6627;50.920;12.050;2022-12-07T01:13:29;98287.19;;;4.42;76.74
13124;BME280;6627;50.920;12.050;2022-12-07T01:15:59;98294.97;;;4.44;76.62
13124;BME280;6627;50.920;12.050;2022-12-07T01:18:28;98278.66;;;4.20;77.03
13124;BME280;6627;50.920;12.050;2022-12-07T01:21:01;98290.44;;;4.34;77.44
13124;BME280;6627;50.920;12.050;2022-12-07T01:23:30;98290.69;;;4.43;77.57
13124;BME280;6627;50.920;12.050;2022-12-07T01:26:01;98274.09;;;4.30;77.08
13124;BME280;6627;50.920;12.050;2022-12-07T01:28:31;98254.81;;;4.13;77.46
13124;BME280;6627;50.920;12.050;2022-12-07T01:31:01;98254.28;;;4.16;77.57
13124;BME280;6627;50.920;12.050;2022-12-07T01:33:32;98252.16;;;4.03;78.27
13124;BME280;6627;50.920;12.050;2022-12-07T01:36:02;98267.41;;;4.23;78.07
13124;BME280;6627;50.920;12.050;2022-12-07T01:38:30;98232.88;;;3.91;77.97
13124;BME280;6627;50.920;12.050;2022-12-07T01:41:00;98246.53;;;3.89;78.66
13124;BME280;6627;50.920;12.050;2022-12-07T01:43:33;98247.34;;;3.90;78.66
13124;BME280;6627;50.920;12.050;2022-12-07T01:46:02;98290.13;;;4.41;79.28
13124;BME280;6627;50.920;12.050;2022-12-07T01:48:36;98258.03;;;4.25;78.07
13124;BME280;6627;50.920;12.050;2022-12-07T01:51:11;98242.50;;;3.97;78.03
13124;BME280;6627;50.920;12.050;2022-12-07T01:53:44;98254.28;;;4.21;77.74
13124;BME280;6627;50.920;12.050;2022-12-07T01:56:20;98220.81;;;3.93;77.71
13124;BME280;6627;50.920;12.050;2022-12-07T01:58:53;98230.97;;;4.01;77.54
13124;BME280;6627;50.920;12.050;2022-12-07T02:01:22;98210.38;;;3.87;77.72
13124;BME280;6627;50.920;12.050;2022-12-07T02:03:49;98237.66;;;4.14;77.91
13124;BME280;6627;50.920;12.050;2022-12-07T02:06:24;98205.56;;;3.84;77.54
13124;BME280;6627;50.920;12.050;2022-12-07T02:08:53;98218.41;;;3.87;77.88
13124;BME280;6627;50.920;12.050;2022-12-07T02:11:21;98196.22;;;3.81;77.49
13124;BME280;6627;50.920;12.050;2022-12-07T02:13:51;98181.47;;;3.58;78.05
13124;BME280;6627;50.920;12.050;2022-12-07T02:16:31;98202.34;;;3.87;78.15
13124;BME280;6627;50.920;12.050;2022-12-07T02:19:59;98238.94;;;4.42;77.20
13124;BME280;6627;50.920;12.050;2022-12-07T02:26:04;98194.31;;;3.92;77.04
13124;BME280;6627;50.920;12.050;2022-12-07T02:29:00;98186.56;;;3.85;77.44
13124;BME280;6627;50.920;12.050;2022-12-07T02:31:38;98213.84;;;4.08;77.58
13124;BME280;6627;50.920;12.050;2022-12-07T02:34:20;98194.81;;;3.94;77.55
13124;BME280;6627;50.920;12.050;2022-12-07T02:36:55;98167.28;;;3.63;77.60
13124;BME280;6627;50.920;12.050;2022-12-07T02:39:31;98176.69;;;3.55;78.65
13124;BME280;6627;50.920;12.050;2022-12-07T02:42:09;98218.88;;;4.29;77.78
13124;BME280;6627;50.920;12.050;2022-12-07T02:44:39;98188.94;;;3.97;77.54
13124;BME280;6627;50.920;12.050;2022-12-07T02:47:12;98188.16;;;3.86;78.21
13124;BME280;6627;50.920;12.050;2022-12-07T02:49:40;98224.50;;;4.23;78.86
13124;BME280;6627;50.920;12.050;2022-12-07T02:52:08;98204.41;;;4.25;77.03
13124;BME280;6627;50.920;12.050;2022-12-07T02:54:35;98202.75;;;4.40;76.64
13124;BME280;6627;50.920;12.050;2022-12-07T02:57:17;98202.53;;;4.26;76.45
13124;BME280;6627;50.920;12.050;2022-12-07T03:00:05;98182.97;;;4.30;76.24
13124;BME280;6627;50.920;12.050;2022-12-07T03:02:46;98219.84;;;4.54;76.18
13124;BME280;6627;50.920;12.050;2022-12-07T03:05:31;98207.19;;;4.65;75.28
13124;BME280;6627;50.920;12.050;2022-12-07T03:08:07;98204.81;;;4.63;75.03
13124;BME280;6627;50.920;12.050;2022-12-07T03:10:50;98202.22;;;4.43;75.27
13124;BME280;6627;50.920;12.050;2022-12-07T03:13:28;98216.09;;;4.55;75.66
13124;BME280;6627;50.920;12.050;2022-12-07T03:16:05;98219.38;;;4.37;76.46
13124;BME280;6627;50.920;12.050;2022-12-07T03:18:41;98217.72;;;4.51;75.58
13124;BME280;6627;50.920;12.050;2022-12-07T03:21:14;98217.75;;;4.46;75.41
13124;BME280;6627;50.920;12.050;2022-12-07T03:23:48;98203.56;;;4.40;75.96
13124;BME280;6627;50.920;12.050;2022-12-07T03:26:19;98217.47;;;4.52;75.41
13124;BME280;6627;50.920;12.050;2022-12-07T03:28:53;98217.34;;;4.83;74.47
13124;BME280;6627;50.920;12.050;2022-12-07T03:31:28;98196.28;;;4.46;75.62
13124;BME280;6627;50.920;12.050;2022-12-07T03:34:05;98207.31;;;4.39;76.48
13124;BME280;6627;50.920;12.050;2022-12-07T03:36:40;98228.13;;;4.63;76.13
13124;BME280;6627;50.920;12.050;2022-12-07T03:39:21;98243.81;;;4.95;75.90
13124;BME280;6627;50.920;12.050;2022-12-07T03:41:51;98226.81;;;4.65;76.00
13124;BME280;6627;50.920;12.050;2022-12-07T03:44:20;98206.00;;;4.32;77.32
13124;BME280;6627;50.920;12.050;2022-12-07T03:46:59;98286.41;;;5.56;76.31
13124;BME280;6627;50.920;12.050;2022-12-07T03:49:37;98230.28;;;5.15;75.02
13124;BME280;6627;50.920;12.050;2022-12-07T03:52:16;98227.94;;;5.03;75.21
13124;BME280;6627;50.920;12.050;2022-12-07T03:54:53;98262.44;;;5.25;75.62
13124;BME280;6627;50.920;12.050;2022-12-07T03:57:24;98270.84;;;5.53;75.12
13124;BME280;6627;50.920;12.050;2022-12-07T03:59:54;98216.16;;;4.99;74.08
13124;BME280;6627;50.920;12.050;2022-12-07T04:02:26;98245.25;;;5.26;74.14
13124;BME280;6627;50.920;12.050;2022-12-07T04:04:55;98278.06;;;5.57;73.79
13124;BME280;6627;50.920;12.050;2022-12-07T04:07:22;98222.31;;;5.00;74.60
13124;BME280;6627;50.920;12.050;2022-12-07T04:09:50;98247.00;;;5.02;75.21
13124;BME280;6627;50.920;12.050;2022-12-07T04:12:18;98279.22;;;5.46;74.20
13124;BME280;6627;50.920;12.050;2022-12-07T04:14:45;98287.91;;;5.72;73.48
13124;BME280;6627;50.920;12.050;2022-12-07T04:17:12;98275.38;;;5.63;73.48
13124;BME280;6627;50.920;12.050;2022-12-07T04:19:41;98269.13;;;5.72;72.63
13124;BME280;6627;50.920;12.050;2022-12-07T04:22:08;98248.25;;;5.59;71.83
13124;BME280;6627;50.920;12.050;2022-12-07T04:24:35;98285.53;;;6.05;70.90
13124;BME280;6627;50.920;12.050;2022-12-07T04:27:03;98288.66;;;6.17;70.44
13124;BME280;6627;50.920;12.050;2022-12-07T04:29:30;98257.13;;;5.89;70.43
13124;BME280;6627;50.920;12.050;2022-12-07T04:31:57;98252.41;;;5.80;71.24
13124;BME280;6627;50.920;12.050;2022-12-07T04:34:25;98290.09;;;6.04;71.80
13124;BME280;6627;50.920;12.050;2022-12-07T04:36:54;98239.19;;;5.50;72.05
13124;BME280;6627;50.920;12.050;2022-12-07T04:39:24;98281.84;;;5.91;72.28
13124;BME280;6627;50.920;12.050;2022-12-07T04:41:52;98234.56;;;5.16;73.63
13124;BME280;6627;50.920;12.050;2022-12-07T04:44:20;98257.06;;;5.25;74.36
13124;BME280;6627;50.920;12.050;2022-12-07T04:46:48;98279.59;;;5.29;75.51
13124;BME280;6627;50.920;12.050;2022-12-07T04:49:17;98280.97;;;5.27;76.13
13124;BME280;6627;50.920;12.050;2022-12-07T04:51:45;98310.38;;;5.87;74.80
13124;BME280;6627;50.920;12.050;2022-12-07T04:54:15;98281.59;;;5.53;74.97
13124;BME280;6627;50.920;12.050;2022-12-07T04:56:43;98251.22;;;5.18;75.79
13124;BME280;6627;50.920;12.050;2022-12-07T04:59:12;98291.19;;;5.64;75.45
13124;BME280;6627;50.920;12.050;2022-12-07T05:01:40;98254.97;;;5.17;76.31
13124;BME280;6627;50.920;12.050;2022-12-07T05:04:08;98254.91;;;5.27;76.35
13124;BME280;6627;50.920;12.050;2022-12-07T05:06:36;98300.97;;;5.89;76.13
13124;BME280;6627;50.920;12.050;2022-12-07T05:09:04;98270.34;;;5.51;76.40
13124;BME280;6627;50.920;12.050;2022-12-07T05:11:32;98252.13;;;5.43;76.32
13124;BME280;6627;50.920;12.050;2022-12-07T05:14:11;98263.00;;;5.62;75.90
13124;BME280;6627;50.920;12.050;2022-12-07T05:16:40;98275.06;;;5.64;75.74
13124;BME280;6627;50.920;12.050;2022-12-07T05:19:09;98251.69;;;5.25;76.95
13124;BME280;6627;50.920;12.050;2022-12-07T05:21:38;98245.34;;;5.11;77.49
13124;BME280;6627;50.920;12.050;2022-12-07T05:24:07;98293.97;;;5.93;76.80
13124;BME280;6627;50.920;12.050;2022-12-07T05:26:36;98255.72;;;5.62;76.11
13124;BME280;6627;50.920;12.050;2022-12-07T05:29:04;98283.69;;;6.00;76.07
13124;BME280;6627;50.920;12.050;2022-12-07T05:31:32;98245.16;;;5.42;76.08
13124;BME280;6627;50.920;12.050;2022-12-07T05:34:00;98252.00;;;5.63;75.89
13124;BME280;6627;50.920;12.050;2022-12-07T05:36:27;98235.63;;;5.20;78.24
13124;BME280;6627;50.920;12.050;2022-12-07T05:38:57;98273.09;;;5.75;78.00
13124;BME280;6627;50.920;12.050;2022-12-07T05:41:24;98271.22;;;5.75;77.57
13124;BME280;6627;50.920;12.050;2022-12-07T05:44:22;98271.41;;;5.84;76.60
13124;BME280;6627;50.920;12.050;2022-12-07T05:46:49;98273.97;;;6.04;76.80
13124;BME280;6627;50.920;12.050;2022-12-07T05:49:17;98244.53;;;5.84;76.39
13124;BME280;6627;50.920;12.050;2022-12-07T05:51:44;98263.31;;;6.23;76.00
13124;BME280;6627;50.920;12.050;2022-12-07T05:54:12;98226.63;;;5.74;76.08
13124;BME280;6627;50.920;12.050;2022-12-07T05:56:39;98261.50;;;5.85;77.10
13124;BME280;6627;50.920;12.050;2022-12-07T05:59:08;98264.91;;;5.95;76.03
13124;BME280;6627;50.920;12.050;2022-12-07T06:01:53;98262.66;;;5.73;77.45
13124;BME280;6627;50.920;12.050;2022-12-07T06:04:22;98279.59;;;6.08;76.62
13124;BME280;6627;50.920;12.050;2022-12-07T06:06:49;98266.03;;;5.89;76.96
13124;BME280;6627;50.920;12.050;2022-12-07T06:09:17;98261.06;;;5.72;76.93
13124;BME280;6627;50.920;12.050;2022-12-07T06:11:45;98264.97;;;5.85;77.83
13124;BME280;6627;50.920;12.050;2022-12-07T06:14:30;98263.66;;;5.82;77.58
13124;BME280;6627;50.920;12.050;2022-12-07T06:16:59;98275.53;;;6.11;77.45
13124;BME280;6627;50.920;12.050;2022-12-07T06:19:26;98271.72;;;6.17;76.66
13124;BME280;6627;50.920;12.050;2022-12-07T06:21:54;98264.03;;;6.05;76.85
13124;BME280;6627;50.920;12.050;2022-12-07T06:24:22;98244.44;;;5.65;77.58
13124;BME280;6627;50.920;12.050;2022-12-07T06:26:49;98251.09;;;5.73;77.67
13124;BME280;6627;50.920;12.050;2022-12-07T06:29:18;98269.44;;;6.00;77.55
13124;BME280;6627;50.920;12.050;2022-12-07T06:31:45;98260.34;;;5.96;77.08
13124;BME280;6627;50.920;12.050;2022-12-07T06:34:17;98286.94;;;6.26;77.48
13124;BME280;6627;50.920;12.050;2022-12-07T06:36:45;98277.34;;;6.44;76.74
13124;BME280;6627;50.920;12.050;2022-12-07T06:39:18;98284.44;;;6.59;75.86
13124;BME280;6627;50.920;12.050;2022-12-07T06:41:48;98285.03;;;6.56;75.86
13124;BME280;6627;50.920;12.050;2022-12-07T06:44:18;98265.84;;;6.10;76.01
13124;BME280;6627;50.920;12.050;2022-12-07T06:46:46;98276.25;;;6.21;76.12
13124;BME280;6627;50.920;12.050;2022-12-07T06:49:15;98293.06;;;6.32;76.15
13124;BME280;6627;50.920;12.050;2022-12-07T06:51:43;98277.94;;;6.12;76.28
13124;BME280;6627;50.920;12.050;2022-12-07T06:54:14;98289.25;;;6.09;77.02
13124;BME280;6627;50.920;12.050;2022-12-07T06:56:42;98315.25;;;6.48;76.25
13124;BME280;6627;50.920;12.050;2022-12-07T06:59:09;98319.03;;;6.47;75.96
13124;BME280;6627;50.920;12.050;2022-12-07T07:01:36;98306.25;;;6.34;76.02
13124;BME280;6627;50.920;12.050;2022-12-07T07:04:04;98281.59;;;5.92;76.28
13124;BME280;6627;50.920;12.050;2022-12-07T07:06:33;98314.25;;;6.39;76.21
13124;BME280;6627;50.920;12.050;2022-12-07T07:09:01;98282.94;;;5.90;76.31
13124;BME280;6627;50.920;12.050;2022-12-07T07:11:29;98312.75;;;6.27;76.91
13124;BME280;6627;50.920;12.050;2022-12-07T07:13:57;98323.25;;;6.24;76.93
13124;BME280;6627;50.920;12.050;2022-12-07T07:16:28;98325.63;;;6.30;76.55
13124;BME280;6627;50.920;12.050;2022-12-07T07:18:57;98340.44;;;6.57;76.14
13124;BME280;6627;50.920;12.050;2022-12-07T07:21:25;98292.50;;;6.06;76.47
13124;BME280;6627;50.920;12.050;2022-12-07T07:23:53;98306.03;;;5.91;77.48
13124;BME280;6627;50.920;12.050;2022-12-07T07:26:20;98323.31;;;6.19;78.14
13124;BME280;6627;50.920;12.050;2022-12-07T07:28:48;98313.69;;;6.13;76.94
13124;BME280;6627;50.920;12.050;2022-12-07T07:31:15;98326.56;;;6.45;77.47
13124;BME280;6627;50.920;12.050;2022-12-07T07:33:42;98310.25;;;6.07;77.34
13124;BME280;6627;50.920;12.050;2022-12-07T07:36:09;98309.66;;;6.10;77.32
13124;BME280;6627;50.920;12.050;2022-12-07T07:38:37;98317.56;;;6.30;77.64
13124;BME280;6627;50.920;12.050;2022-12-07T07:41:05;98306.94;;;6.15;77.58
13124;BME280;6627;50.920;12.050;2022-12-07T07:43:33;98329.13;;;6.60;76.68
13124;BME280;6627;50.920;12.050;2022-12-07T07:46:00;98304.25;;;6.44;76.60
13124;BME280;6627;50.920;12.050;2022-12-07T07:48:27;98320.31;;;6.78;76.08
13124;BME280;6627;50.920;12.050;2022-12-07T07:50:55;98302.31;;;6.50;75.41
13124;BME280;6627;50.920;12.050;2022-12-07T07:53:22;98305.72;;;6.31;76.12
13124;BME280;6627;50.920;12.050;2022-12-07T07:55:53;98323.06;;;6.73;75.28
13124;BME280;6627;50.920;12.050;2022-12-07T07:58:22;98313.97;;;6.40;75.97
13124;BME280;6627;50.920;12.050;2022-12-07T08:00:49;98347.56;;;6.72;75.79
13124;BME280;6627;50.920;12.050;2022-12-07T08:03:17;98351.47;;;6.85;75.52
13124;BME280;6627;50.920;12.050;2022-12-07T08:05:45;98344.94;;;6.91;75.21
13124;BME280;6627;50.920;12.050;2022-12-07T08:08:12;98354.56;;;6.97;74.71
13124;BME280;6627;50.920;12.050;2022-12-07T08:10:40;98361.66;;;7.12;74.77
13124;BME280;6627;50.920;12.050;2022-12-07T08:13:07;98371.09;;;6.85;75.10
13124;BME280;6627;50.920;12.050;2022-12-07T08:15:42;98364.91;;;6.85;75.18
13124;BME280;6627;50.920;12.050;2022-12-07T08:18:10;98385.16;;;7.06;74.99
13124;BME280;6627;50.920;12.050;2022-12-07T08:20:38;98389.97;;;7.09;75.20
13124;BME280;6627;50.920;12.050;2022-12-07T08:23:07;98359.03;;;6.82;74.60
13124;BME280;6627;50.920;12.050;2022-12-07T08:25:35;98387.53;;;7.07;74.63
13124;BME280;6627;50.920;12.050;2022-12-07T08:28:02;98387.91;;;7.01;75.32
13124;BME280;6627;50.920;12.050;2022-12-07T08:30:32;98396.38;;;7.13;75.26
13124;BME280;6627;50.920;12.050;2022-12-07T08:33:00;98397.19;;;7.14;74.44
13124;BME280;6627;50.920;12.050;2022-12-07T08:35:28;98407.94;;;7.38;74.47
13124;BME280;6627;50.920;12.050;2022-12-07T08:37:55;98381.94;;;7.04;74.56
13124;BME280;6627;50.920;12.050;2022-12-07T08:40:24;98406.66;;;7.30;74.92
13124;BME280;6627;50.920;12.050;2022-12-07T08:42:51;98400.78;;;7.04;75.04
13124;BME280;6627;50.920;12.050;2022-12-07T08:45:21;98429.25;;;7.58;74.30
13124;BME280;6627;50.920;12.050;2022-12-07T08:47:52;98398.88;;;7.28;73.90
13124;BME280;6627;50.920;12.050;2022-12-07T08:50:23;98391.97;;;7.22;74.25
13124;BME280;6627;50.920;12.050;2022-12-07T08:52:53;98430.28;;;7.62;74.04
13124;BME280;6627;50.920;12.050;2022-12-07T08:55:21;98425.09;;;7.66;73.57
13124;BME280;6627;50.920;12.050;2022-12-07T08:57:50;98435.38;;;7.82;73.52
13124;BME280;6627;50.920;12.050;2022-12-07T09:00:18;98446.84;;;7.93;72.81
13124;BME280;6627;50.920;12.050;2022-12-07T09:02:46;98404.19;;;7.57;72.29
13124;BME280;6627;50.920;12.050;2022-12-07T09:05:14;98434.91;;;7.80;73.49
13124;BME280;6627;50.920;12.050;2022-12-07T09:07:49;98414.78;;;7.73;72.58
13124;BME280;6627;50.920;12.050;2022-12-07T09:10:18;98429.56;;;7.75;72.37
13124;BME280;6627;50.920;12.050;2022-12-07T09:12:46;98413.66;;;7.55;72.80
13124;BME280;6627;50.920;12.050;2022-12-07T09:15:13;98413.09;;;7.58;72.51
13124;BME280;6627;50.920;12.050;2022-12-07T09:17:40;98408.72;;;7.38;73.25
13124;BME280;6627;50.920;12.050;2022-12-07T09:20:08;98445.28;;;7.68;72.93
13124;BME280;6627;50.920;12.050;2022-12-07T09:22:37;98446.63;;;7.90;72.27
13124;BME280;6627;50.920;12.050;2022-12-07T09:25:07;98435.44;;;7.58;72.51
13124;BME280;6627;50.920;12.050;2022-12-07T09:27:34;98464.00;;;8.21;72.08
13124;BME280;6627;50.920;12.050;2022-12-07T09:30:05;98452.75;;;8.14;71.87
13124;BME280;6627;50.920;12.050;2022-12-07T09:32:32;98426.50;;;7.63;72.01
13124;BME280;6627;50.920;12.050;2022-12-07T09:35:01;98434.38;;;7.78;71.92
13124;BME280;6627;50.920;12.050;2022-12-07T09:37:29;98480.50;;;8.39;72.04
13124;BME280;6627;50.920;12.050;2022-12-07T09:39:57;98431.03;;;7.87;70.55
13124;BME280;6627;50.920;12.050;2022-12-07T09:42:35;98414.53;;;7.69;71.35
13124;BME280;6627;50.920;12.050;2022-12-07T09:45:06;98423.72;;;7.68;71.63
13124;BME280;6627;50.920;12.050;2022-12-07T09:47:39;98440.53;;;8.03;71.32
13124;BME280;6627;50.920;12.050;2022-12-07T09:50:14;98433.31;;;7.79;71.43
13124;BME280;6627;50.920;12.050;2022-12-07T09:52:44;98440.78;;;7.82;72.11
13124;BME280;6627;50.920;12.050;2022-12-07T09:55:16;98455.59;;;8.23;71.62
13124;BME280;6627;50.920;12.050;2022-12-07T09:57:49;98407.09;;;7.61;71.40
13124;BME280;6627;50.920;12.050;2022-12-07T10:00:20;98425.88;;;7.90;71.38
13124;BME280;6627;50.920;12.050;2022-12-07T10:02:54;98450.56;;;8.16;71.47
13124;BME280;6627;50.920;12.050;2022-12-07T10:05:27;98431.41;;;7.99;71.66
13124;BME280;6627;50.920;12.050;2022-12-07T10:07:55;98403.41;;;7.57;71.36
13124;BME280;6627;50.920;12.050;2022-12-07T10:10:26;98423.09;;;7.95;71.14
13124;BME280;6627;50.920;12.050;2022-12-07T10:13:00;98404.78;;;7.73;71.04
13124;BME280;6627;50.920;12.050;2022-12-07T10:15:48;98405.38;;;7.70;71.71
13124;BME280;6627;50.920;12.050;2022-12-07T10:18:32;98405.25;;;7.80;71.27
13124;BME280;6627;50.920;12.050;2022-12-07T10:21:11;98421.50;;;7.94;71.15
13124;BME280;6627;50.920;12.050;2022-12-07T10:23:42;98446.53;;;8.38;71.19
13124;BME280;6627;50.920;12.050;2022-12-07T10:26:26;98439.53;;;8.31;70.64
13124;BME280;6627;50.920;12.050;2022-12-07T10:28:59;98438.47;;;8.32;70.54
13124;BME280;6627;50.920;12.050;2022-12-07T10:31:28;98423.53;;;8.21;70.37
13124;BME280;6627;50.920;12.050;2022-12-07T10:33:58;98423.53;;;8.21;70.22
13124;BME280;6627;50.920;12.050;2022-12-07T10:36:34;98432.72;;;8.39;70.05
13124;BME280;6627;50.920;12.050;2022-12-07T10:39:13;98380.31;;;7.89;69.77
13124;BME280;6627;50.920;12.050;2022-12-07T10:41:54;98420.03;;;8.40;69.20
13124;BME280;6627;50.920;12.050;2022-12-07T10:44:27;98401.38;;;8.24;68.81
13124;BME280;6627;50.920;12.050;2022-12-07T10:47:19;98422.47;;;8.36;69.13
13124;BME280;6627;50.920;12.050;2022-12-07T10:50:37;98381.59;;;8.10;68.33
13124;BME280;6627;50.920;12.050;2022-12-07T10:53:39;98432.00;;;8.66;68.05
13124;BME280;6627;50.920;12.050;2022-12-07T10:56:48;98393.78;;;8.26;68.33
13124;BME280;6627;50.920;12.050;2022-12-07T10:59:46;98394.78;;;8.30;68.06
13124;BME280;6627;50.920;12.050;2022-12-07T11:02:32;98408.41;;;8.58;67.74
13124;BME280;6627;50.920;12.050;2022-12-07T11:05:17;98427.88;;;8.88;67.10
13124;BME280;6627;50.920;12.050;2022-12-07T11:08:00;98388.75;;;8.39;67.83
13124;BME280;6627;50.920;12.050;2022-12-07T11:10:40;98375.13;;;8.11;67.96
13124;BME280;6627;50.920;12.050;2022-12-07T11:13:25;98383.72;;;8.13;68.18
13124;BME280;6627;50.920;12.050;2022-12-07T11:16:21;98392.56;;;8.38;67.31
13124;BME280;6627;50.920;12.050;2022-12-07T11:19:05;98392.66;;;8.27;67.63
13124;BME280;6627;50.920;12.050;2022-12-07T11:21:45;98413.22;;;8.61;67.41
13124;BME280;6627;50.920;12.050;2022-12-07T11:24:20;98388.97;;;8.42;67.19
13124;BME280;6627;50.920;12.050;2022-12-07T11:27:12;98392.38;;;8.48;67.17
13124;BME280;6627;50.920;12.050;2022-12-07T11:29:55;98425.59;;;8.95;66.72
13124;BME280;6627;50.920;12.050;2022-12-07T11:32:52;98399.94;;;8.78;66.09
13124;BME280;6627;50.920;12.050;2022-12-07T11:35:36;98391.84;;;8.78;65.87
13124;BME280;6627;50.920;12.050;2022-12-07T11:38:12;98378.94;;;8.75;65.35
13124;BME280;6627;50.920;12.050;2022-12-07T11:40:45;98427.13;;;9.28;64.82
13124;BME280;6627;50.920;12.050;2022-12-07T11:43:22;98423.03;;;9.45;64.00
13124;BME280;6627;50.920;12.050;2022-12-07T11:45:59;98404.91;;;9.45;63.71
13124;BME280;6627;50.920;12.050;2022-12-07T11:48:36;98347.47;;;9.12;63.19
13124;BME280;6627;50.920;12.050;2022-12-07T11:51:10;98372.28;;;9.28;63.27
13124;BME280;6627;50.920;12.050;2022-12-07T11:53:46;98367.28;;;9.35;62.95
13124;BME280;6627;50.920;12.050;2022-12-07T11:56:19;98349.06;;;9.13;62.95
13124;BME280;6627;50.920;12.050;2022-12-07T11:58:53;98350.88;;;9.04;63.45
13124;BME280;6627;50.920;12.050;2022-12-07T12:01:35;98340.19;;;8.99;63.07
13124;BME280;6627;50.920;12.050;2022-12-07T12:04:22;98340.88;;;9.04;63.08
13124;BME280;6627;50.920;12.050;2022-12-07T12:06:50;98359.47;;;9.20;63.56
13124;BME280;6627;50.920;12.050;2022-12-07T12:09:25;98341.06;;;9.08;63.05
13124;BME280;6627;50.920;12.050;2022-12-07T12:15:07;98361.66;;;9.31;62.79
13124;BME280;6627;50.920;12.050;2022-12-07T12:18:19;98367.06;;;9.45;62.78
13124;BME280;6627;50.920;12.050;2022-12-07T12:20:58;98340.25;;;9.35;61.90
13124;BME280;6627;50.920;12.050;2022-12-07T12:23:39;98359.53;;;9.56;61.98
13124;BME280;6627;50.920;12.050;2022-12-07T12:26:18;98354.91;;;9.70;61.31
13124;BME280;6627;50.920;12.050;2022-12-07T12:28:55;98361.59;;;9.73;61.14
13124;BME280;6627;50.920;12.050;2022-12-07T12:31:38;98322.13;;;9.35;61.45
13124;BME280;6627;50.920;12.050;2022-12-07T12:34:33;98325.84;;;9.40;61.91
13124;BME280;6627;50.920;12.050;2022-12-07T12:37:01;98265.06;;;8.87;61.86
13124;BME280;6627;50.920;12.050;2022-12-07T12:39:30;98319.66;;;9.25;62.24
13124;BME280;6627;50.920;12.050;2022-12-07T12:41:59;98303.16;;;8.99;62.36
13124;BME280;6627;50.920;12.050;2022-12-07T12:45:11;98276.16;;;8.86;62.19
13124;BME280;6627;50.920;12.050;2022-12-07T12:48:27;98245.28;;;8.64;62.17
13124;BME280;6627;50.920;12.050;2022-12-07T12:51:36;98261.56;;;8.87;61.57
13124;BME280;6627;50.920;12.050;2022-12-07T12:54:12;98252.84;;;8.76;61.56
13124;BME280;6627;50.920;12.050;2022-12-07T12:56:47;98263.75;;;8.84;61.38
13124;BME280;6627;50.920;12.050;2022-12-07T12:59:28;98304.41;;;9.29;61.43
13124;BME280;6627;50.920;12.050;2022-12-07T13:02:16;98255.84;;;8.88;61.26
13124;BME280;6627;50.920;12.050;2022-12-07T13:04:53;98248.25;;;8.76;61.70
13124;BME280;6627;50.920;12.050;2022-12-07T13:08:00;98289.25;;;9.06;61.50
13124;BME280;6627;50.920;12.050;2022-12-07T13:10:46;98275.63;;;9.11;61.30
13124;BME280;6627;50.920;12.050;2022-12-07T13:13:32;98288.97;;;9.07;61.66
13124;BME280;6627;50.920;12.050;2022-12-07T13:16:40;98323.25;;;9.34;61.67
13124;BME280;6627;50.920;12.050;2022-12-07T13:22:51;98289.94;;;8.98;62.02
13124;BME280;6627;50.920;12.050;2022-12-07T13:25:30;98210.16;;;8.37;62.28
13124;BME280;6627;50.920;12.050;2022-12-07T13:28:14;98225.03;;;8.34;62.70
13124;BME280;6627;50.920;12.050;2022-12-07T13:30:52;98257.06;;;8.68;62.44
13124;BME280;6627;50.920;12.050;2022-12-07T13:33:21;98233.47;;;8.60;62.28
13124;BME280;6627;50.920;12.050;2022-12-07T13:35:54;98231.06;;;8.45;62.47
13124;BME280;6627;50.920;12.050;2022-12-07T13:38:29;98215.63;;;8.31;62.60
13124;BME280;6627;50.920;12.050;2022-12-07T13:41:13;98206.81;;;8.12;62.81
13124;BME280;6627;50.920;12.050;2022-12-07T13:43:51;98187.22;;;7.93;62.93
13124;BME280;6627;50.920;12.050;2022-12-07T13:46:27;98229.00;;;8.09;63.43
13124;BME280;6627;50.920;12.050;2022-12-07T13:48:58;98244.81;;;8.29;63.42
13124;BME280;6627;50.920;12.050;2022-12-07T13:51:27;98268.47;;;8.65;63.10
13124;BME280;6627;50.920;12.050;2022-12-07T13:54:01;98283.16;;;8.73;62.67